createdAt,value
2018-06-16T00:02:00.168Z,19.30
2018-06-16T00:04:28.380Z,19.30
2018-06-16T00:06:56.490Z,19.30
2018-06-16T00:09:24.490Z,19.20
2018-06-16T00:11:52.585Z,19.30
2018-06-16T00:14:20.651Z,19.30
2018-06-16T00:16:48.708Z,19.40
2018-06-16T00:19:16.772Z,19.40
2018-06-16T00:21:44.853Z,19.30
2018-06-16T00:24:12.912Z,19.40
2018-06-16T00:26:40.993Z,19.40
2018-06-16T00:29:09.066Z,19.30
2018-06-16T00:31:37.142Z,19.20
2018-06-16T00:34:05.272Z,19.20
2018-06-16T00:36:33.315Z,19.30
2018-06-16T00:39:01.374Z,19.30
2018-06-16T00:41:29.448Z,19.30
2018-06-16T00:43:57.574Z,19.30
2018-06-16T00:46:25.647Z,19.30
2018-06-16T00:51:21.575Z,19.20
2018-06-16T00:53:49.650Z,19.20
2018-06-16T00:58:45.573Z,19.10
2018-06-16T01:01:13.663Z,19.10
2018-06-16T01:08:37.471Z,19.00
2018-06-16T01:11:05.629Z,19.00
2018-06-16T01:13:33.713Z,18.90
2018-06-16T01:16:01.788Z,18.90
2018-06-16T01:18:29.860Z,18.90
2018-06-16T01:20:57.943Z,18.80
2018-06-16T01:23:26.006Z,18.70
2018-06-16T01:25:54.187Z,18.80
2018-06-16T01:28:22.237Z,18.80
2018-06-16T01:30:50.289Z,18.80
2018-06-16T01:33:18.334Z,18.70
2018-06-16T01:35:46.419Z,18.60
2018-06-16T01:38:14.498Z,18.50
2018-06-16T01:40:42.571Z,18.40
2018-06-16T01:43:10.623Z,18.40
2018-06-16T01:45:38.696Z,18.40
2018-06-16T01:48:06.756Z,18.50
2018-06-16T01:50:34.851Z,18.40
2018-06-16T01:53:02.919Z,18.40
2018-06-16T01:55:30.956Z,18.40
2018-06-16T01:57:59.005Z,18.40
2018-06-16T02:00:27.050Z,18.30
2018-06-16T02:02:55.109Z,18.30
2018-06-16T02:05:23.245Z,18.30
2018-06-16T02:07:51.347Z,18.30
2018-06-16T02:10:19.383Z,18.30
2018-06-16T02:12:47.473Z,18.20
2018-06-16T02:15:15.530Z,18.20
2018-06-16T02:17:43.571Z,18.20
2018-06-16T02:20:11.659Z,18.20
2018-06-16T02:22:39.766Z,18.20
2018-06-16T02:27:35.706Z,18.20
2018-06-16T02:30:03.762Z,18.10
2018-06-16T02:32:31.850Z,18.10
2018-06-16T02:34:59.940Z,18.10
2018-06-16T02:37:28.031Z,18.10
2018-06-16T02:39:56.078Z,18.20
2018-06-16T02:42:24.144Z,18.20
2018-06-16T02:44:52.229Z,18.20
2018-06-16T02:47:20.300Z,18.10
2018-06-16T02:49:48.380Z,18.10
2018-06-16T02:52:16.451Z,18.00
2018-06-16T02:54:44.518Z,18.10
2018-06-16T02:57:12.632Z,18.00
2018-06-16T02:59:40.663Z,18.00
2018-06-16T03:02:08.741Z,18.00
2018-06-16T03:07:04.768Z,18.00
2018-06-16T03:09:32.872Z,18.10
2018-06-16T03:12:00.928Z,18.10
2018-06-16T03:14:29.015Z,18.20
2018-06-16T03:16:57.086Z,18.30
2018-06-16T03:19:25.156Z,18.40
2018-06-16T03:21:53.279Z,18.40
2018-06-16T03:24:21.366Z,18.50
2018-06-16T03:26:49.426Z,18.50
2018-06-16T03:29:17.500Z,18.60
2018-06-16T03:31:45.645Z,18.60
2018-06-16T03:34:13.758Z,18.60
2018-06-16T03:36:41.822Z,18.70
2018-06-16T03:39:10.462Z,18.70
2018-06-16T03:41:38.509Z,18.70
2018-06-16T03:44:06.583Z,18.70
2018-06-16T03:49:02.671Z,18.80
2018-06-16T03:51:30.774Z,18.80
2018-06-16T03:53:58.842Z,18.90
2018-06-16T03:56:26.902Z,19.00
2018-06-16T03:58:54.981Z,19.00
2018-06-16T04:01:23.053Z,19.00
2018-06-16T04:03:51.144Z,19.00
2018-06-16T04:06:19.213Z,19.00
2018-06-16T04:08:47.290Z,19.00
2018-06-16T04:11:15.359Z,19.00
2018-06-16T04:13:43.465Z,19.00
2018-06-16T04:16:11.560Z,19.00
2018-06-16T04:18:39.666Z,19.00
2018-06-16T04:21:07.769Z,19.00
2018-06-16T04:23:35.850Z,19.00
2018-06-16T04:26:03.944Z,19.10
2018-06-16T04:28:32.068Z,19.00
2018-06-16T04:31:00.158Z,19.10
2018-06-16T04:33:28.269Z,19.10
2018-06-16T04:35:56.392Z,19.20
2018-06-16T04:38:24.484Z,19.20
2018-06-16T04:40:52.549Z,19.20
2018-06-16T04:43:20.655Z,19.30
2018-06-16T04:45:48.835Z,19.30
2018-06-16T04:48:16.871Z,19.30
2018-06-16T04:50:45.030Z,19.40
2018-06-16T04:53:13.116Z,19.30
2018-06-16T04:55:42.161Z,19.40
2018-06-16T04:58:10.233Z,19.50
2018-06-16T05:00:38.339Z,19.60
2018-06-16T05:03:06.594Z,19.60
2018-06-16T05:05:34.657Z,19.60
2018-06-16T05:08:02.744Z,19.60
2018-06-16T05:10:30.864Z,19.70
2018-06-16T05:12:58.962Z,19.90
2018-06-16T05:15:27.116Z,19.90
2018-06-16T05:17:55.210Z,20.00
2018-06-16T05:20:23.308Z,20.10
2018-06-16T05:22:51.387Z,20.20
2018-06-16T05:25:19.446Z,20.30
2018-06-16T05:27:47.520Z,20.30
2018-06-16T05:30:15.627Z,20.40
2018-06-16T05:32:43.712Z,20.40
2018-06-16T05:35:11.814Z,20.50
2018-06-16T05:37:39.913Z,20.60
2018-06-16T05:42:37.041Z,20.70
2018-06-16T05:45:05.151Z,20.80
2018-06-16T05:50:01.175Z,21.00
2018-06-16T05:52:29.284Z,21.10
2018-06-16T05:54:57.378Z,21.10
2018-06-16T05:57:25.571Z,21.10
2018-06-16T05:59:53.655Z,21.20
2018-06-16T06:02:21.731Z,21.30
2018-06-16T06:04:49.954Z,21.30
2018-06-16T06:07:18.063Z,21.40
2018-06-16T06:09:46.098Z,21.40
2018-06-16T06:12:14.206Z,21.50
2018-06-16T06:14:42.437Z,21.50
2018-06-16T06:17:10.747Z,21.50
2018-06-16T06:19:38.987Z,21.60
2018-06-16T06:22:07.105Z,21.60
2018-06-16T06:24:35.206Z,21.70
2018-06-16T06:27:03.294Z,21.70
2018-06-16T06:29:31.335Z,21.80
2018-06-16T06:31:59.396Z,21.90
2018-06-16T06:34:27.471Z,22.00
2018-06-16T06:36:55.543Z,22.00
2018-06-16T06:39:23.614Z,22.20
2018-06-16T06:41:51.685Z,22.20
2018-06-16T06:44:19.810Z,22.30
2018-06-16T06:46:47.880Z,22.30
2018-06-16T06:49:15.976Z,22.40
2018-06-16T06:56:39.969Z,22.70
2018-06-16T07:01:36.030Z,22.70
2018-06-16T07:04:04.167Z,22.70
2018-06-16T07:06:32.244Z,23.00
2018-06-16T07:09:00.318Z,23.10
2018-06-16T07:11:28.468Z,23.10
2018-06-16T07:13:56.636Z,23.30
2018-06-16T07:16:24.718Z,23.40
2018-06-16T07:18:52.810Z,23.60
2018-06-16T07:21:20.874Z,23.70
2018-06-16T07:23:48.966Z,23.70
2018-06-16T07:26:17.053Z,23.80
2018-06-16T07:28:45.106Z,23.90
2018-06-16T07:31:13.214Z,23.70
2018-06-16T07:33:41.294Z,23.90
2018-06-16T07:36:09.426Z,23.90
2018-06-16T07:38:37.476Z,24.00
2018-06-16T07:41:05.543Z,24.10
2018-06-16T07:43:33.640Z,24.20
2018-06-16T07:46:01.715Z,24.20
2018-06-16T07:48:29.800Z,24.30
2018-06-16T07:50:57.873Z,24.20
2018-06-16T07:53:25.995Z,24.20
2018-06-16T07:55:54.056Z,24.10
2018-06-16T07:58:22.145Z,24.40
2018-06-16T08:00:50.201Z,24.50
2018-06-16T08:03:18.267Z,24.60
2018-06-16T08:05:46.350Z,24.30
2018-06-16T08:08:14.402Z,24.60
2018-06-16T08:10:42.483Z,24.70
2018-06-16T08:13:10.553Z,24.70
2018-06-16T08:15:38.618Z,24.90
2018-06-16T08:18:06.712Z,25.00
2018-06-16T08:20:34.822Z,24.90
2018-06-16T08:23:02.911Z,25.10
2018-06-16T08:25:31.023Z,25.10
2018-06-16T08:27:59.135Z,25.10
2018-06-16T08:30:27.211Z,25.10
2018-06-16T08:32:55.293Z,24.90
2018-06-16T08:35:23.388Z,25.20
2018-06-16T08:37:51.472Z,25.20
2018-06-16T08:40:19.529Z,25.30
2018-06-16T08:42:47.601Z,25.40
2018-06-16T08:45:15.690Z,25.50
2018-06-16T08:47:43.821Z,25.40
2018-06-16T08:50:11.954Z,25.60
2018-06-16T08:52:40.049Z,25.60
2018-06-16T08:55:08.161Z,25.40
2018-06-16T08:57:36.237Z,25.40
2018-06-16T09:00:04.488Z,25.40
2018-06-16T09:02:32.585Z,25.50
2018-06-16T09:05:00.638Z,25.80
2018-06-16T09:07:28.740Z,25.80
2018-06-16T09:09:56.827Z,25.60
2018-06-16T09:12:24.901Z,25.60
2018-06-16T09:14:52.996Z,25.40
2018-06-16T09:17:21.173Z,25.40
2018-06-16T09:19:49.254Z,25.50
2018-06-16T09:22:17.395Z,25.60
2018-06-16T09:24:45.483Z,25.50
2018-06-16T09:27:13.614Z,25.10
2018-06-16T09:29:41.970Z,24.90
2018-06-16T09:32:11.506Z,25.20
2018-06-16T09:34:39.753Z,25.50
2018-06-16T09:37:08.093Z,25.50
2018-06-16T09:39:36.175Z,25.20
2018-06-16T09:42:04.331Z,25.00
2018-06-16T09:44:32.447Z,25.20
2018-06-16T09:47:00.563Z,25.40
2018-06-16T09:49:28.685Z,25.50
2018-06-16T09:51:56.791Z,25.50
2018-06-16T09:54:24.862Z,25.80
2018-06-16T09:56:52.970Z,25.90
2018-06-16T09:59:21.257Z,26.10
2018-06-16T10:01:49.343Z,26.30
2018-06-16T10:04:17.424Z,26.10
2018-06-16T10:06:45.596Z,25.70
2018-06-16T10:09:13.723Z,25.80
2018-06-16T10:11:41.832Z,26.00
2018-06-16T10:14:09.981Z,26.20
2018-06-16T10:16:38.183Z,26.00
2018-06-16T10:19:06.281Z,26.10
2018-06-16T10:21:34.447Z,26.40
2018-06-16T10:24:02.554Z,26.60
2018-06-16T10:26:30.642Z,26.30
2018-06-16T10:28:58.787Z,26.10
2018-06-16T10:31:26.911Z,26.30
2018-06-16T10:33:55.137Z,26.40
2018-06-16T10:36:23.315Z,26.20
2018-06-16T10:38:51.393Z,26.20
2018-06-16T10:41:19.457Z,26.70
2018-06-16T10:43:47.609Z,26.60
2018-06-16T10:46:15.687Z,27.00
2018-06-16T10:48:43.824Z,27.30
2018-06-16T10:51:11.912Z,27.40
2018-06-16T10:53:40.023Z,27.30
2018-06-16T10:56:08.126Z,27.10
2018-06-16T10:58:36.299Z,27.10
2018-06-16T11:01:04.556Z,27.00
2018-06-16T11:03:32.653Z,27.20
2018-06-16T11:06:00.794Z,27.10
2018-06-16T11:08:28.932Z,27.20
2018-06-16T11:10:57.055Z,27.30
2018-06-16T11:13:25.230Z,27.60
2018-06-16T11:15:53.343Z,27.50
2018-06-16T11:18:21.519Z,27.60
2018-06-16T11:20:49.623Z,27.70
2018-06-16T11:23:17.674Z,27.50
2018-06-16T11:25:45.767Z,27.30
2018-06-16T11:28:13.872Z,26.90
2018-06-16T11:30:41.937Z,26.80
2018-06-16T11:33:10.066Z,27.00
2018-06-16T11:35:38.409Z,26.90
2018-06-16T11:38:06.502Z,27.00
2018-06-16T11:40:34.578Z,27.10
2018-06-16T11:43:02.656Z,27.20
2018-06-16T11:45:30.739Z,27.10
2018-06-16T11:47:58.827Z,26.90
2018-06-16T11:50:26.967Z,27.10
2018-06-16T11:52:55.062Z,27.20
2018-06-16T11:55:23.184Z,27.30
2018-06-16T11:57:51.269Z,27.50
2018-06-16T12:00:19.418Z,27.50
2018-06-16T12:02:47.515Z,27.70
2018-06-16T12:05:15.616Z,27.90
2018-06-16T12:07:43.722Z,27.90
2018-06-16T12:10:11.806Z,28.00
2018-06-16T12:12:39.896Z,27.80
2018-06-16T12:15:07.974Z,27.70
2018-06-16T12:17:36.048Z,27.50
2018-06-16T12:20:04.158Z,27.50
2018-06-16T12:22:32.241Z,27.70
2018-06-16T12:25:00.397Z,27.90
2018-06-16T12:27:28.471Z,28.00
2018-06-16T12:29:56.559Z,28.00
2018-06-16T12:32:24.663Z,27.90
2018-06-16T12:34:52.768Z,27.50
2018-06-16T12:37:20.885Z,27.40
2018-06-16T12:39:48.967Z,27.30
2018-06-16T12:42:17.051Z,27.40
2018-06-16T12:44:45.163Z,27.50
2018-06-16T12:47:13.235Z,27.40
2018-06-16T12:49:41.357Z,27.30
2018-06-16T12:52:09.450Z,27.20
2018-06-16T12:54:37.621Z,27.20
2018-06-16T12:57:05.758Z,27.10
2018-06-16T12:59:33.907Z,27.10
2018-06-16T13:02:01.997Z,27.00
2018-06-16T13:04:30.189Z,26.90
2018-06-16T13:07:00.697Z,26.40
2018-06-16T13:09:28.784Z,26.30
2018-06-16T13:11:56.877Z,26.40
2018-06-16T13:14:24.949Z,26.30
2018-06-16T13:16:53.018Z,26.40
2018-06-16T13:19:21.070Z,26.40
2018-06-16T13:21:49.191Z,26.20
2018-06-16T13:24:17.365Z,26.20
2018-06-16T13:26:45.864Z,26.30
2018-06-16T13:31:41.859Z,26.40
2018-06-16T13:34:09.956Z,26.40
2018-06-16T13:36:38.086Z,26.30
2018-06-16T13:39:08.280Z,26.60
2018-06-16T13:41:36.410Z,26.90
2018-06-16T13:44:04.514Z,27.10
2018-06-16T13:46:32.633Z,27.30
2018-06-16T13:49:00.675Z,27.50
2018-06-16T13:51:28.834Z,27.60
2018-06-16T13:53:56.918Z,27.70
2018-06-16T13:56:25.043Z,27.70
2018-06-16T13:58:53.119Z,27.70
2018-06-16T14:01:21.378Z,27.80
2018-06-16T14:03:49.462Z,27.70
2018-06-16T14:06:17.563Z,27.70
2018-06-16T14:08:45.660Z,27.90
2018-06-16T14:11:13.743Z,28.00
2018-06-16T14:13:41.812Z,28.00
2018-06-16T14:16:09.950Z,27.60
2018-06-16T14:18:38.057Z,27.50
2018-06-16T14:21:06.495Z,27.30
2018-06-16T14:23:34.606Z,27.30
2018-06-16T14:26:02.667Z,27.00
2018-06-16T14:28:30.739Z,26.80
2018-06-16T14:30:58.835Z,26.90
2018-06-16T14:35:54.840Z,27.10
2018-06-16T14:38:22.944Z,27.20
2018-06-16T14:40:51.066Z,27.20
2018-06-16T14:43:19.184Z,27.20
2018-06-16T14:45:47.277Z,27.30
2018-06-16T14:48:15.893Z,27.30
2018-06-16T14:50:47.074Z,27.30
2018-06-16T14:53:15.247Z,27.30
2018-06-16T14:55:43.640Z,27.20
2018-06-16T14:58:13.972Z,27.30
2018-06-16T15:00:42.024Z,27.30
2018-06-16T15:03:10.153Z,27.30
2018-06-16T15:05:38.361Z,27.20
2018-06-16T15:08:06.469Z,27.30
2018-06-16T15:10:34.594Z,27.40
2018-06-16T15:15:30.569Z,27.40
2018-06-16T15:17:58.638Z,27.50
2018-06-16T15:20:26.711Z,27.40
2018-06-16T15:22:54.775Z,27.20
2018-06-16T15:25:22.898Z,26.90
2018-06-16T15:27:50.977Z,27.00
2018-06-16T15:30:19.062Z,27.00
2018-06-16T15:32:47.122Z,26.90
2018-06-16T15:35:15.210Z,27.10
2018-06-16T15:37:43.343Z,27.30
2018-06-16T15:40:11.425Z,27.50
2018-06-16T15:42:39.475Z,27.50
2018-06-16T15:45:07.593Z,27.50
2018-06-16T15:47:35.682Z,27.40
2018-06-16T15:50:03.826Z,27.40
2018-06-16T15:52:31.890Z,27.10
2018-06-16T15:55:01.081Z,27.10
2018-06-16T15:57:29.085Z,27.00
2018-06-16T15:59:57.160Z,26.90
2018-06-16T16:02:25.225Z,26.80
2018-06-16T16:04:53.405Z,26.80
2018-06-16T16:07:21.710Z,26.80
2018-06-16T16:09:49.822Z,26.80
2018-06-16T16:12:17.943Z,26.70
2018-06-16T16:14:46.031Z,26.70
2018-06-16T16:17:14.123Z,26.60
2018-06-16T16:19:42.272Z,26.70
2018-06-16T16:22:10.342Z,26.70
2018-06-16T16:24:38.411Z,26.70
2018-06-16T16:27:06.489Z,26.70
2018-06-16T16:29:34.584Z,26.60
2018-06-16T16:32:03.038Z,26.60
2018-06-16T16:34:31.607Z,26.60
2018-06-16T16:36:59.682Z,26.60
2018-06-16T16:41:55.790Z,26.50
2018-06-16T16:44:23.873Z,26.50
2018-06-16T16:46:51.979Z,26.50
2018-06-16T16:49:20.044Z,26.50
2018-06-16T16:51:48.165Z,26.40
2018-06-16T16:54:16.279Z,26.40
2018-06-16T16:56:44.817Z,26.40
2018-06-16T16:59:12.876Z,26.30
2018-06-16T17:01:40.907Z,26.20
2018-06-16T17:04:08.954Z,26.20
2018-06-16T17:06:37.110Z,26.10
2018-06-16T17:09:07.191Z,26.00
2018-06-16T17:11:35.324Z,25.90
2018-06-16T17:14:03.351Z,25.70
2018-06-16T17:16:31.448Z,25.70
2018-06-16T17:18:59.497Z,25.70
2018-06-16T17:21:27.692Z,25.70
2018-06-16T17:23:55.822Z,25.70
2018-06-16T17:26:23.909Z,25.70
2018-06-16T17:31:20.418Z,25.70
2018-06-16T17:33:48.627Z,25.70
2018-06-16T17:36:16.752Z,25.70
2018-06-16T17:38:44.835Z,25.70
2018-06-16T17:41:12.962Z,25.70
2018-06-16T17:43:41.148Z,25.70
2018-06-16T17:46:09.324Z,25.70
2018-06-16T17:48:37.460Z,25.70
2018-06-16T17:51:05.600Z,25.60
2018-06-16T17:53:33.663Z,25.60
2018-06-16T17:56:01.779Z,25.60
2018-06-16T17:58:29.859Z,25.50
2018-06-16T18:00:57.997Z,25.40
2018-06-16T18:03:26.103Z,25.30
2018-06-16T18:05:54.713Z,25.30
2018-06-16T18:08:22.830Z,25.20
2018-06-16T18:10:51.531Z,25.20
2018-06-16T18:13:19.650Z,25.10
2018-06-16T18:15:47.777Z,25.10
2018-06-16T18:18:15.889Z,25.00
2018-06-16T18:20:44.061Z,25.00
2018-06-16T18:23:12.172Z,24.90
2018-06-16T18:25:40.235Z,24.90
2018-06-16T18:28:08.339Z,24.80
2018-06-16T18:30:36.615Z,24.70
2018-06-16T18:33:04.695Z,24.70
2018-06-16T18:35:32.806Z,24.60
2018-06-16T18:38:00.908Z,24.60
2018-06-16T18:40:29.003Z,24.50
2018-06-16T18:42:57.264Z,24.50
2018-06-16T18:45:25.801Z,24.40
2018-06-16T18:47:54.339Z,24.30
2018-06-16T18:50:22.425Z,24.30
2018-06-16T18:52:50.696Z,24.40
2018-06-16T18:55:18.830Z,24.30
2018-06-16T18:57:47.023Z,24.30
2018-06-16T19:00:15.099Z,24.30
2018-06-16T19:02:43.223Z,24.30
2018-06-16T19:05:11.363Z,24.20
2018-06-16T19:07:39.495Z,24.20
2018-06-16T19:10:07.647Z,24.20
2018-06-16T19:12:35.767Z,24.20
2018-06-16T19:15:04.060Z,24.10
2018-06-16T19:17:32.184Z,24.10
2018-06-16T19:20:00.295Z,24.10
2018-06-16T19:24:56.260Z,24.20
2018-06-16T19:27:24.384Z,24.20
2018-06-16T19:29:52.483Z,24.10
2018-06-16T19:32:20.575Z,24.10
2018-06-16T19:34:48.679Z,24.10
2018-06-16T19:37:16.826Z,24.00
2018-06-16T19:39:44.936Z,24.00
2018-06-16T19:42:13.046Z,23.90
2018-06-16T19:44:41.164Z,23.90
2018-06-16T19:47:09.301Z,23.90
2018-06-16T19:49:37.387Z,23.90
2018-06-16T19:54:33.526Z,23.80
2018-06-16T19:57:01.654Z,23.80
2018-06-16T19:59:29.851Z,23.80
2018-06-16T20:01:57.928Z,23.80
2018-06-16T20:04:26.091Z,23.70
2018-06-16T20:06:54.210Z,23.70
2018-06-16T20:09:22.363Z,23.80
2018-06-16T20:11:50.545Z,23.70
2018-06-16T20:14:18.575Z,23.70
2018-06-16T20:16:46.663Z,23.80
2018-06-16T20:19:14.779Z,23.70
2018-06-16T20:21:42.868Z,23.70
2018-06-16T20:24:10.976Z,23.60
2018-06-16T20:26:39.080Z,23.60
2018-06-16T20:31:35.136Z,23.70
2018-06-16T20:34:03.304Z,23.60
2018-06-16T20:36:31.384Z,23.70
2018-06-16T20:38:59.511Z,23.60
2018-06-16T20:41:27.592Z,23.60
2018-06-16T20:43:55.724Z,23.60
2018-06-16T20:46:23.816Z,23.50
2018-06-16T20:48:52.002Z,23.40
2018-06-16T20:51:20.096Z,23.40
2018-06-16T20:53:48.246Z,23.50
2018-06-16T20:56:16.395Z,23.50
2018-06-16T20:58:44.456Z,23.40
2018-06-16T21:01:12.566Z,23.40
2018-06-16T21:03:40.632Z,23.30
2018-06-16T21:06:08.725Z,23.20
2018-06-16T21:08:36.775Z,23.10
2018-06-16T21:11:04.972Z,23.10
2018-06-16T21:13:33.000Z,23.20
2018-06-16T21:16:01.092Z,23.10
2018-06-16T21:18:29.146Z,23.00
2018-06-16T21:20:57.305Z,22.90
2018-06-16T21:23:25.385Z,22.90
2018-06-16T21:25:53.537Z,22.80
2018-06-16T21:28:21.675Z,22.70
2018-06-16T21:30:49.834Z,22.70
2018-06-16T21:33:18.016Z,22.60
2018-06-16T21:35:46.148Z,22.50
2018-06-16T21:38:14.256Z,22.60
2018-06-16T21:40:42.375Z,22.50
2018-06-16T21:43:10.506Z,22.50
2018-06-16T21:45:38.774Z,22.40
2018-06-16T21:48:06.903Z,22.40
2018-06-16T21:50:34.998Z,22.30
2018-06-16T21:55:31.066Z,22.10
2018-06-16T21:57:59.176Z,22.10
2018-06-16T22:00:31.570Z,22.10
2018-06-16T22:02:59.691Z,22.10
2018-06-16T22:05:27.808Z,22.10
2018-06-16T22:08:00.172Z,22.00
2018-06-16T22:10:28.282Z,22.00
2018-06-16T22:15:24.243Z,21.90
2018-06-16T22:17:52.458Z,21.90
2018-06-16T22:20:20.544Z,22.00
2018-06-16T22:22:48.660Z,22.00
2018-06-16T22:25:16.739Z,22.00
2018-06-16T22:27:44.849Z,21.90
2018-06-16T22:30:12.944Z,21.90
2018-06-16T22:32:41.094Z,21.90
2018-06-16T22:35:09.178Z,21.80
2018-06-16T22:37:37.285Z,21.80
2018-06-16T22:40:05.404Z,21.70
2018-06-16T22:42:33.535Z,21.60
2018-06-16T22:45:01.631Z,21.60
2018-06-16T22:47:29.767Z,21.60
2018-06-16T22:49:57.900Z,21.60
2018-06-16T22:52:26.010Z,21.60
2018-06-16T22:54:54.108Z,21.60
2018-06-16T22:57:22.214Z,21.60
2018-06-16T22:59:50.312Z,21.70
2018-06-16T23:02:18.430Z,21.70
2018-06-16T23:04:46.502Z,21.60
2018-06-16T23:09:42.636Z,21.60
2018-06-16T23:12:10.809Z,21.60
2018-06-16T23:14:38.912Z,21.60
2018-06-16T23:17:07.052Z,21.60
2018-06-16T23:19:35.192Z,21.60
2018-06-16T23:22:03.322Z,21.60
2018-06-16T23:24:31.494Z,21.70
2018-06-16T23:29:27.505Z,21.60
2018-06-16T23:31:55.617Z,21.60
2018-06-16T23:34:23.858Z,21.60
2018-06-16T23:36:51.956Z,21.50
2018-06-16T23:39:20.075Z,21.60
2018-06-16T23:41:48.161Z,21.60
2018-06-16T23:44:16.256Z,21.60
2018-06-16T23:46:44.337Z,21.50
2018-06-16T23:49:12.512Z,21.50
2018-06-16T23:51:40.603Z,21.50
2018-06-16T23:54:08.734Z,21.50
2018-06-16T23:56:36.820Z,21.50
2018-06-16T23:59:05.029Z,21.40
